Lillian, Alabama
Current Conditions -  °F | °C
As of 12:56 PM on Friday 21 Nov 2014 (Local Time) from KNPA Reporting Station
Few Clouds Few Clouds  
Wind Chill: 68°   Ceiling: Unl
Heat Index: 68°   Visibility: 10mi
Dew Point: 45°   Wind: 12mph
Humidity: 43%   Direction: 80°E
Pressure: 30.28"   Gusts: NA
Location:  30.41°N, 87.44°W
Report Text: KNPA 211856Z 08010KT 10SM FEW030 20/07 A3028 RMK AO2 SLP254 FU FEW030 FU NW-NE T02000072
Loading
Personal Weather Stations






























Interactive Weather Map New forecast layout! Learn more

10-Day Weather Forecast

Advertisements
Track Severe Weather on mobile